createdAt,value
2022-11-05T00:01:35.522Z,5.40
2022-11-05T00:04:20.340Z,5.25
2022-11-05T00:07:05.181Z,5.70
2022-11-05T00:09:35.370Z,5.80
2022-11-05T00:12:21.963Z,5.63
2022-11-05T00:15:07.065Z,5.43
2022-11-05T00:17:33.683Z,5.28
2022-11-05T00:20:00.252Z,5.63
2022-11-05T00:22:45.625Z,5.38
2022-11-05T00:25:14.612Z,5.65
2022-11-05T00:27:40.952Z,5.68
2022-11-05T00:30:07.783Z,5.30
2022-11-05T00:32:34.049Z,5.85
2022-11-05T00:35:00.332Z,5.22
2022-11-05T00:37:30.142Z,5.32
2022-11-05T00:39:56.418Z,5.82
2022-11-05T00:42:41.435Z,5.70
2022-11-05T00:45:07.888Z,5.60
2022-11-05T00:47:52.828Z,6.32
2022-11-05T00:50:19.785Z,6.03
2022-11-05T00:55:30.807Z,6.18
2022-11-05T00:57:57.557Z,6.53
2022-11-05T01:00:25.266Z,6.38
2022-11-05T01:02:51.631Z,5.85
2022-11-05T01:05:18.189Z,7.40
2022-11-05T01:07:44.490Z,6.35
2022-11-05T01:10:10.793Z,5.88
2022-11-05T01:12:37.028Z,6.47
2022-11-05T01:15:03.355Z,6.15
2022-11-05T01:17:29.642Z,6.70
2022-11-05T01:19:55.887Z,5.93
2022-11-05T01:22:22.127Z,6.45
2022-11-05T01:24:48.338Z,5.90
2022-11-05T01:27:14.579Z,5.78
2022-11-05T01:29:41.639Z,6.95
2022-11-05T01:34:34.039Z,5.15
2022-11-05T01:37:00.261Z,6.50
2022-11-05T01:39:26.889Z,7.00
2022-11-05T01:41:53.113Z,6.35
2022-11-05T01:44:37.878Z,6.60
2022-11-05T01:47:04.141Z,6.03
2022-11-05T01:49:32.086Z,6.40
2022-11-05T01:51:59.704Z,6.15
2022-11-05T01:54:27.775Z,6.30
2022-11-05T01:56:57.431Z,6.15
2022-11-05T01:59:29.452Z,7.00
2022-11-05T02:01:55.883Z,6.50
2022-11-05T02:04:27.520Z,5.80
2022-11-05T02:06:54.295Z,5.22
2022-11-05T02:09:26.828Z,6.40
2022-11-05T02:11:53.452Z,6.45
2022-11-05T02:14:20.313Z,6.38
2022-11-05T02:16:49.824Z,6.07
2022-11-05T02:19:32.008Z,6.80
2022-11-05T02:22:17.347Z,5.95
2022-11-05T02:25:10.046Z,6.70
2022-11-05T02:28:00.451Z,6.22
2022-11-05T02:30:32.775Z,6.00
2022-11-05T02:33:06.400Z,6.05
2022-11-05T02:35:41.587Z,5.95
2022-11-05T02:38:16.685Z,7.50
2022-11-05T02:40:49.834Z,5.95
2022-11-05T02:43:24.546Z,7.57
2022-11-05T02:45:53.650Z,6.50
2022-11-05T02:48:26.478Z,6.25
2022-11-05T02:50:59.183Z,7.13
2022-11-05T02:53:28.321Z,7.18
2022-11-05T02:55:59.306Z,5.90
2022-11-05T02:58:28.910Z,6.13
2022-11-05T03:00:56.234Z,6.32
2022-11-05T03:03:40.289Z,6.47
2022-11-05T03:06:25.301Z,6.20
2022-11-05T03:09:03.799Z,6.15
2022-11-05T03:11:31.800Z,6.60
2022-11-05T03:14:00.835Z,6.47
2022-11-05T03:16:32.839Z,6.38
2022-11-05T03:19:13.173Z,6.35
2022-11-05T03:21:39.389Z,6.50
2022-11-05T03:24:12.222Z,6.50
2022-11-05T03:26:43.186Z,6.32
2022-11-05T03:29:11.411Z,6.93
2022-11-05T03:31:39.403Z,7.80
2022-11-05T03:34:06.719Z,7.75
2022-11-05T03:36:45.622Z,7.13
2022-11-05T03:39:13.776Z,7.40
2022-11-05T03:41:43.146Z,7.95
2022-11-05T03:44:10.869Z,8.30
2022-11-05T03:46:41.557Z,8.25
2022-11-05T03:49:09.834Z,8.48
2022-11-05T03:51:42.931Z,7.45
2022-11-05T03:54:09.348Z,8.60
2022-11-05T03:56:54.074Z,7.88
2022-11-05T03:59:21.096Z,8.20
2022-11-05T04:04:13.642Z,8.38
2022-11-05T04:06:58.707Z,8.60
2022-11-05T04:09:43.645Z,8.40
2022-11-05T04:12:29.398Z,8.00
2022-11-05T04:14:55.664Z,8.65
2022-11-05T04:17:21.910Z,8.65
2022-11-05T04:20:06.615Z,8.82
2022-11-05T04:22:52.837Z,7.93
2022-11-05T04:25:19.712Z,7.82
2022-11-05T04:27:46.349Z,7.43
2022-11-05T04:30:19.788Z,7.75
2022-11-05T04:33:04.793Z,8.60
2022-11-05T04:35:49.506Z,7.38
2022-11-05T04:38:17.579Z,7.80
2022-11-05T04:40:44.447Z,7.80
2022-11-05T04:43:15.430Z,7.80
2022-11-05T04:45:42.186Z,7.90
2022-11-05T04:48:08.771Z,7.43
2022-11-05T04:50:35.247Z,7.07
2022-11-05T04:53:01.557Z,6.72
2022-11-05T04:55:28.432Z,7.72
2022-11-05T04:57:55.108Z,6.65
2022-11-05T05:00:21.994Z,6.78
2022-11-05T05:02:48.674Z,6.07
2022-11-05T05:05:15.083Z,6.18
2022-11-05T05:07:41.884Z,5.70
2022-11-05T05:10:09.390Z,5.50
2022-11-05T05:12:35.920Z,5.88
2022-11-05T05:15:02.350Z,5.68
2022-11-05T05:17:28.674Z,5.90
2022-11-05T05:20:13.751Z,5.85
2022-11-05T05:22:40.012Z,6.05
2022-11-05T05:25:06.318Z,5.25
2022-11-05T05:27:32.568Z,5.47
2022-11-05T05:29:59.394Z,6.93
2022-11-05T05:32:26.242Z,5.03
2022-11-05T05:34:52.789Z,5.70
2022-11-05T05:37:19.461Z,7.20
2022-11-05T05:39:47.031Z,6.05
2022-11-05T05:42:13.691Z,5.88
2022-11-05T05:44:39.926Z,5.32
2022-11-05T05:47:06.393Z,5.20
2022-11-05T05:49:32.698Z,4.43
2022-11-05T05:51:58.920Z,4.88
2022-11-05T05:54:30.884Z,4.75
2022-11-05T05:56:58.988Z,4.18
2022-11-05T05:59:25.413Z,4.28
2022-11-05T06:01:51.807Z,2.97
2022-11-05T06:04:18.231Z,3.75
2022-11-05T06:06:46.726Z,3.63
2022-11-05T06:09:14.028Z,3.05
2022-11-05T06:11:40.555Z,3.50
2022-11-05T06:14:09.104Z,3.15
2022-11-05T06:16:35.847Z,3.65
2022-11-05T06:19:02.463Z,3.50
2022-11-05T06:21:28.719Z,3.30
2022-11-05T06:23:54.945Z,3.65
2022-11-05T06:26:21.250Z,3.50
2022-11-05T06:28:47.541Z,3.50
2022-11-05T06:31:14.271Z,3.63
2022-11-05T06:33:40.963Z,4.15
2022-11-05T06:36:08.197Z,4.85
2022-11-05T06:38:35.376Z,4.55
2022-11-05T06:43:32.036Z,4.63
2022-11-05T06:46:00.874Z,10.52
2022-11-05T06:48:27.321Z,18.00
2022-11-05T06:50:53.543Z,14.93
2022-11-05T06:53:19.979Z,10.38
2022-11-05T06:55:47.858Z,5.88
2022-11-05T06:58:14.932Z,5.30
2022-11-05T07:00:41.221Z,7.22
2022-11-05T07:03:08.720Z,7.45
2022-11-05T07:05:36.626Z,9.38
2022-11-05T07:08:03.035Z,7.70
2022-11-05T07:10:29.446Z,8.55
2022-11-05T07:12:55.807Z,9.65
2022-11-05T07:15:22.167Z,6.78
2022-11-05T07:17:48.377Z,6.22
2022-11-05T07:20:14.679Z,5.65
2022-11-05T07:22:40.921Z,6.38
2022-11-05T07:25:07.387Z,5.32
2022-11-05T07:27:40.116Z,4.45
2022-11-05T07:30:08.053Z,5.55
2022-11-05T07:32:38.308Z,11.30
2022-11-05T07:35:04.717Z,5.78
2022-11-05T07:37:30.983Z,5.80
2022-11-05T07:39:57.306Z,5.32
2022-11-05T07:42:23.518Z,4.63
2022-11-05T07:44:49.765Z,8.40
2022-11-05T07:47:15.999Z,5.93
2022-11-05T07:49:42.210Z,5.43
2022-11-05T07:52:08.751Z,5.60
2022-11-05T07:54:34.959Z,4.72
2022-11-05T07:57:01.440Z,5.03
2022-11-05T07:59:27.677Z,5.10
2022-11-05T08:01:54.142Z,4.97
2022-11-05T08:04:20.929Z,4.95
2022-11-05T08:06:47.193Z,4.65
2022-11-05T08:09:13.539Z,5.32
2022-11-05T08:11:40.046Z,3.97
2022-11-05T08:14:06.329Z,4.45
2022-11-05T08:16:32.587Z,4.05
2022-11-05T08:18:58.829Z,4.35
2022-11-05T08:21:25.076Z,5.28
2022-11-05T08:23:51.346Z,7.00
2022-11-05T08:26:17.627Z,5.10
2022-11-05T08:28:43.922Z,4.80
2022-11-05T08:31:10.180Z,5.20
2022-11-05T08:33:36.500Z,4.03
2022-11-05T08:36:03.993Z,4.35
2022-11-05T08:38:30.422Z,4.65
2022-11-05T08:40:57.673Z,4.53
2022-11-05T08:43:24.205Z,4.53
2022-11-05T08:45:50.517Z,4.63
2022-11-05T08:48:18.091Z,4.93
2022-11-05T08:50:45.773Z,5.15
2022-11-05T08:53:12.553Z,4.82
2022-11-05T08:55:39.317Z,5.30
2022-11-05T08:58:07.355Z,5.35
2022-11-05T09:00:35.234Z,4.88
2022-11-05T09:03:02.214Z,4.80
2022-11-05T09:08:00.466Z,4.53
2022-11-05T09:10:28.335Z,5.07
2022-11-05T09:12:54.747Z,4.40
2022-11-05T09:15:21.029Z,4.80
2022-11-05T09:17:47.277Z,4.28
2022-11-05T09:20:16.430Z,3.50
2022-11-05T09:22:43.580Z,3.28
2022-11-05T09:25:10.169Z,3.28
2022-11-05T09:27:36.394Z,3.38
2022-11-05T09:30:02.702Z,3.78
2022-11-05T09:32:30.277Z,3.05
2022-11-05T09:34:56.598Z,3.70
2022-11-05T09:37:23.456Z,3.70
2022-11-05T09:39:49.803Z,4.03
2022-11-05T09:42:17.843Z,3.53
2022-11-05T09:44:46.130Z,3.75
2022-11-05T09:47:21.166Z,3.17
2022-11-05T09:49:50.263Z,3.63
2022-11-05T09:52:27.834Z,4.28
2022-11-05T09:57:24.050Z,3.00
2022-11-05T09:59:52.130Z,4.05
2022-11-05T10:02:23.060Z,3.47
2022-11-05T10:04:51.318Z,4.00
2022-11-05T10:07:20.085Z,3.13
2022-11-05T10:09:51.069Z,4.10
2022-11-05T10:12:20.366Z,3.00
2022-11-05T10:14:48.395Z,3.50
2022-11-05T10:17:18.010Z,2.65
2022-11-05T10:19:47.481Z,2.47
2022-11-05T10:22:16.352Z,2.65
2022-11-05T10:24:44.118Z,3.25
2022-11-05T10:27:30.387Z,2.65
2022-11-05T10:29:56.959Z,2.80
2022-11-05T10:32:23.189Z,3.17
2022-11-05T10:34:49.955Z,3.25
2022-11-05T10:37:23.649Z,3.88
2022-11-05T10:39:50.007Z,3.60
2022-11-05T10:42:25.092Z,2.90
2022-11-05T10:45:03.553Z,3.40
2022-11-05T10:47:33.499Z,3.20
2022-11-05T10:50:01.133Z,3.88
2022-11-05T10:52:27.346Z,3.15
2022-11-05T10:54:56.635Z,2.92
2022-11-05T10:57:30.650Z,2.28
2022-11-05T11:00:12.202Z,2.05
2022-11-05T11:02:38.695Z,2.30
2022-11-05T11:05:05.190Z,1.85
2022-11-05T11:07:31.455Z,2.30
2022-11-05T11:09:57.715Z,2.50
2022-11-05T11:12:25.806Z,2.45
2022-11-05T11:15:02.436Z,2.15
2022-11-05T11:17:29.783Z,2.00
2022-11-05T11:20:14.957Z,2.13
2022-11-05T11:22:41.177Z,2.25
2022-11-05T11:25:27.352Z,2.05
2022-11-05T11:27:54.523Z,2.20
2022-11-05T11:30:21.640Z,2.20
2022-11-05T11:32:48.518Z,2.50
2022-11-05T11:37:42.128Z,2.05
2022-11-05T11:40:16.502Z,2.28
2022-11-05T11:42:45.808Z,2.00
2022-11-05T11:45:18.476Z,2.05
2022-11-05T11:47:45.691Z,2.08
2022-11-05T11:50:30.773Z,1.95
2022-11-05T11:53:15.829Z,2.70
2022-11-05T11:55:55.772Z,2.08
2022-11-05T11:58:42.289Z,2.13
2022-11-05T12:01:27.676Z,2.00
2022-11-05T12:04:13.092Z,1.40
2022-11-05T12:06:43.402Z,1.83
2022-11-05T12:09:16.799Z,1.65
2022-11-05T12:11:47.536Z,1.52
2022-11-05T12:14:21.638Z,1.38
2022-11-05T12:16:47.853Z,1.67
2022-11-05T12:19:22.473Z,1.58
2022-11-05T12:21:52.885Z,1.60
2022-11-05T12:24:35.101Z,1.48
2022-11-05T12:27:07.523Z,1.52
2022-11-05T12:29:36.877Z,1.58
2022-11-05T12:32:06.172Z,1.73
2022-11-05T12:34:51.198Z,2.03
2022-11-05T12:37:29.627Z,1.40
2022-11-05T12:39:58.878Z,1.80
2022-11-05T12:42:37.488Z,1.55
2022-11-05T12:45:36.533Z,1.90
2022-11-05T12:48:15.547Z,1.77
2022-11-05T12:50:47.801Z,2.50
2022-11-05T12:53:22.882Z,2.00
2022-11-05T12:55:49.613Z,3.10
2022-11-05T12:58:27.839Z,2.72
2022-11-05T13:01:00.571Z,3.20
2022-11-05T13:03:42.104Z,3.33
2022-11-05T13:06:11.262Z,4.43
2022-11-05T13:08:42.112Z,3.90
2022-11-05T13:11:18.846Z,4.15
2022-11-05T13:13:45.066Z,4.40
2022-11-05T13:16:22.458Z,4.07
2022-11-05T13:18:50.327Z,3.67
2022-11-05T13:21:18.468Z,3.60
2022-11-05T13:23:49.095Z,3.83
2022-11-05T13:26:21.458Z,3.95
2022-11-05T13:28:50.823Z,3.58
2022-11-05T13:31:22.597Z,3.95
2022-11-05T13:33:50.545Z,3.85
2022-11-05T13:36:50.678Z,3.50
2022-11-05T13:39:28.978Z,3.03
2022-11-05T13:42:01.222Z,3.67
2022-11-05T13:44:47.443Z,3.20
2022-11-05T13:47:28.103Z,3.05
2022-11-05T13:50:02.308Z,3.92
2022-11-05T13:52:34.851Z,3.67
2022-11-05T13:55:26.047Z,2.97
2022-11-05T13:58:02.198Z,3.60
2022-11-05T14:00:44.648Z,3.85
2022-11-05T14:03:18.464Z,6.82
2022-11-05T14:05:49.376Z,9.70
2022-11-05T14:08:20.925Z,8.00
2022-11-05T14:11:07.654Z,6.40
2022-11-05T14:13:39.006Z,4.90
2022-11-05T14:16:06.930Z,3.85
2022-11-05T14:18:41.087Z,3.45
2022-11-05T14:21:27.299Z,4.38
2022-11-05T14:23:54.557Z,3.50
2022-11-05T14:26:22.686Z,3.65
2022-11-05T14:28:53.774Z,3.20
2022-11-05T14:31:19.975Z,3.60
2022-11-05T14:33:59.622Z,3.40
2022-11-05T14:36:30.967Z,3.80
2022-11-05T14:39:04.235Z,4.20
2022-11-05T14:41:31.095Z,3.70
2022-11-05T14:44:00.194Z,3.58
